createdAt,value
2023-03-16T00:01:37.750Z,5.10
2023-03-16T00:04:05.997Z,5.10
2023-03-16T00:06:49.527Z,5.20
2023-03-16T00:09:17.570Z,5.30
2023-03-16T00:11:45.566Z,5.20
2023-03-16T00:14:13.923Z,5.10
2023-03-16T00:16:43.333Z,5.20
2023-03-16T00:19:11.380Z,5.20
2023-03-16T00:21:39.390Z,5.30
2023-03-16T00:24:07.720Z,5.20
2023-03-16T00:26:35.767Z,5.10
2023-03-16T00:29:03.982Z,5.10
2023-03-16T00:31:33.720Z,4.90
2023-03-16T00:34:03.392Z,4.90
2023-03-16T00:36:33.876Z,4.90
2023-03-16T00:39:02.229Z,5.00
2023-03-16T00:41:30.371Z,5.10
2023-03-16T00:43:58.410Z,5.10
2023-03-16T00:46:27.899Z,5.00
2023-03-16T00:48:55.917Z,4.90
2023-03-16T00:51:25.302Z,4.80
2023-03-16T00:53:53.665Z,5.00
2023-03-16T00:56:21.796Z,5.00
2023-03-16T00:58:49.805Z,5.10
2023-03-16T01:01:19.804Z,4.90
2023-03-16T01:03:49.240Z,4.80
2023-03-16T01:06:20.514Z,4.80
2023-03-16T01:08:52.336Z,4.90
2023-03-16T01:11:22.872Z,5.10
2023-03-16T01:13:54.261Z,5.10
2023-03-16T01:16:23.402Z,5.20
2023-03-16T01:18:52.453Z,5.10
2023-03-16T01:21:21.616Z,5.00
2023-03-16T01:23:53.798Z,4.70
2023-03-16T01:26:23.148Z,4.60
2023-03-16T01:28:51.173Z,4.70
2023-03-16T01:31:19.293Z,4.80
2023-03-16T01:33:47.574Z,4.70
2023-03-16T01:36:21.154Z,4.80
2023-03-16T01:39:01.046Z,4.80
2023-03-16T01:41:33.850Z,4.80
2023-03-16T01:44:01.888Z,4.70
2023-03-16T01:46:31.127Z,4.60
2023-03-16T01:49:13.497Z,4.60
2023-03-16T01:51:46.111Z,4.60
2023-03-16T01:54:23.638Z,4.60
2023-03-16T01:56:59.194Z,4.50
2023-03-16T01:59:31.673Z,4.50
2023-03-16T02:02:00.007Z,4.50
2023-03-16T02:04:50.982Z,4.50
2023-03-16T02:07:25.063Z,4.50
2023-03-16T02:09:59.324Z,4.70
2023-03-16T02:12:29.243Z,4.80
2023-03-16T02:14:59.288Z,4.80
2023-03-16T02:17:30.947Z,4.80
2023-03-16T02:20:17.472Z,4.60
2023-03-16T02:22:50.417Z,4.60
2023-03-16T02:25:20.256Z,4.50
2023-03-16T02:27:58.249Z,4.50
2023-03-16T02:30:28.438Z,4.40
2023-03-16T02:33:00.655Z,4.30
2023-03-16T02:35:28.901Z,4.30
2023-03-16T02:37:57.033Z,4.30
2023-03-16T02:40:32.191Z,4.40
2023-03-16T02:43:07.366Z,4.50
2023-03-16T02:45:46.816Z,4.40
2023-03-16T02:48:24.432Z,4.60
2023-03-16T02:50:55.191Z,4.70
2023-03-16T02:53:23.711Z,4.80
2023-03-16T02:55:51.922Z,4.70
2023-03-16T02:58:21.105Z,4.60
2023-03-16T03:00:50.497Z,4.50
2023-03-16T03:03:19.129Z,4.50
2023-03-16T03:05:47.202Z,4.60
2023-03-16T03:08:15.462Z,4.60
2023-03-16T03:10:45.187Z,4.50
2023-03-16T03:13:13.499Z,4.60
2023-03-16T03:15:41.980Z,4.50
2023-03-16T03:18:14.533Z,4.60
2023-03-16T03:20:42.927Z,4.60
2023-03-16T03:23:11.758Z,4.60
2023-03-16T03:25:42.885Z,4.60
2023-03-16T03:28:11.395Z,4.60
2023-03-16T03:30:39.585Z,4.50
2023-03-16T03:33:07.689Z,4.50
2023-03-16T03:35:37.815Z,4.60
2023-03-16T03:38:08.061Z,4.70
2023-03-16T03:40:36.615Z,4.70
2023-03-16T03:43:06.317Z,4.70
2023-03-16T03:45:38.749Z,4.70
2023-03-16T03:48:07.309Z,4.60
2023-03-16T03:50:38.342Z,4.50
2023-03-16T03:53:24.687Z,4.60
2023-03-16T03:56:15.612Z,4.70
2023-03-16T03:58:43.691Z,4.70
2023-03-16T04:01:14.453Z,4.70
2023-03-16T04:03:44.819Z,4.70
2023-03-16T04:06:17.334Z,4.50
2023-03-16T04:08:45.388Z,4.60
2023-03-16T04:11:18.248Z,4.70
2023-03-16T04:13:46.366Z,4.60
2023-03-16T04:16:17.159Z,4.50
2023-03-16T04:18:47.660Z,4.40
2023-03-16T04:21:18.528Z,4.50
2023-03-16T04:23:49.042Z,4.50
2023-03-16T04:26:17.882Z,4.60
2023-03-16T04:28:48.187Z,4.50
2023-03-16T04:31:19.456Z,4.60
2023-03-16T04:33:48.748Z,4.60
2023-03-16T04:36:18.250Z,4.60
2023-03-16T04:38:46.611Z,4.60
2023-03-16T04:41:14.715Z,4.60
2023-03-16T04:43:54.673Z,4.50
2023-03-16T04:46:26.593Z,4.60
2023-03-16T04:48:58.452Z,4.60
2023-03-16T04:51:29.934Z,4.60
2023-03-16T04:54:05.749Z,4.60
2023-03-16T04:56:36.763Z,4.60
2023-03-16T04:59:10.720Z,4.60
2023-03-16T05:01:48.536Z,4.50
2023-03-16T05:04:19.709Z,4.60
2023-03-16T05:06:51.397Z,4.60
2023-03-16T05:09:23.507Z,4.60
2023-03-16T05:11:51.675Z,4.60
2023-03-16T05:14:20.532Z,4.60
2023-03-16T05:17:03.716Z,4.50
2023-03-16T05:19:31.897Z,4.60
2023-03-16T05:22:01.455Z,4.60
2023-03-16T05:24:29.830Z,4.60
2023-03-16T05:26:58.557Z,4.50
2023-03-16T05:29:27.060Z,4.50
2023-03-16T05:31:55.101Z,4.60
2023-03-16T05:34:26.174Z,4.60
2023-03-16T05:36:54.354Z,4.60
2023-03-16T05:39:24.964Z,4.50
2023-03-16T05:41:55.057Z,4.60
2023-03-16T05:44:40.641Z,4.50
2023-03-16T05:47:25.644Z,4.40
2023-03-16T05:49:57.709Z,4.40
2023-03-16T05:52:39.297Z,4.30
2023-03-16T05:55:17.692Z,4.50
2023-03-16T05:57:51.065Z,4.50
2023-03-16T06:00:20.768Z,4.50
2023-03-16T06:02:57.100Z,4.50
2023-03-16T06:05:32.116Z,4.60
2023-03-16T06:08:00.189Z,4.60
2023-03-16T06:10:30.472Z,4.60
2023-03-16T06:12:59.978Z,4.50
2023-03-16T06:15:30.474Z,4.60
2023-03-16T06:18:01.337Z,4.70
2023-03-16T06:20:30.406Z,4.60
2023-03-16T06:22:58.873Z,4.60
2023-03-16T06:25:27.810Z,4.60
2023-03-16T06:27:57.697Z,4.60
2023-03-16T06:30:26.733Z,4.60
2023-03-16T06:32:55.921Z,4.70
2023-03-16T06:35:25.126Z,4.70
2023-03-16T06:38:06.818Z,4.70
2023-03-16T06:40:53.708Z,4.80
2023-03-16T06:43:24.173Z,4.70
2023-03-16T06:45:53.332Z,4.80
2023-03-16T06:48:22.384Z,5.00
2023-03-16T06:50:50.846Z,5.00
2023-03-16T06:53:23.935Z,5.00
2023-03-16T06:55:53.288Z,5.10
2023-03-16T06:58:21.812Z,5.10
2023-03-16T07:00:51.753Z,5.20
2023-03-16T07:03:19.873Z,5.30
2023-03-16T07:05:54.271Z,5.40
2023-03-16T07:08:22.379Z,5.40
2023-03-16T07:10:51.924Z,5.40
2023-03-16T07:13:20.452Z,5.40
2023-03-16T07:15:52.843Z,5.50
2023-03-16T07:18:22.551Z,5.50
2023-03-16T07:20:51.772Z,5.60
2023-03-16T07:23:19.879Z,5.60
2023-03-16T07:25:48.028Z,5.60
2023-03-16T07:28:18.456Z,5.60
2023-03-16T07:31:02.603Z,5.60
2023-03-16T07:33:35.350Z,5.70
2023-03-16T07:36:06.983Z,5.70
2023-03-16T07:38:41.652Z,5.70
2023-03-16T07:41:09.937Z,5.70
2023-03-16T07:43:38.774Z,5.80
2023-03-16T07:46:13.595Z,5.80
2023-03-16T07:48:43.938Z,5.90
2023-03-16T07:51:14.014Z,5.90
2023-03-16T07:53:43.558Z,5.90
2023-03-16T07:56:17.615Z,5.90
2023-03-16T07:58:48.520Z,5.90
2023-03-16T08:01:16.934Z,5.90
2023-03-16T08:03:46.358Z,6.00
2023-03-16T08:06:14.546Z,6.10
2023-03-16T08:08:42.888Z,6.10
2023-03-16T08:11:23.441Z,6.30
2023-03-16T08:13:56.890Z,6.30
2023-03-16T08:16:28.606Z,6.40
2023-03-16T08:18:58.606Z,6.40
2023-03-16T08:21:28.345Z,6.50
2023-03-16T08:23:56.491Z,6.50
2023-03-16T08:26:26.474Z,6.60
2023-03-16T08:29:02.443Z,6.60
2023-03-16T08:31:35.127Z,6.70
2023-03-16T08:34:17.917Z,6.80
2023-03-16T08:36:46.225Z,7.00
2023-03-16T08:39:16.373Z,7.10
2023-03-16T08:41:48.218Z,7.20
2023-03-16T08:44:39.985Z,7.30
2023-03-16T08:47:08.720Z,7.40
2023-03-16T08:49:39.663Z,7.50
2023-03-16T08:52:12.923Z,7.60
2023-03-16T08:54:47.050Z,7.80
2023-03-16T08:57:21.176Z,7.90
2023-03-16T08:59:49.628Z,7.90
2023-03-16T09:02:17.706Z,8.00
2023-03-16T09:04:47.391Z,8.10
2023-03-16T09:07:15.671Z,8.10
2023-03-16T09:09:43.845Z,8.10
2023-03-16T09:12:12.635Z,8.20
2023-03-16T09:14:40.661Z,8.20
2023-03-16T09:17:08.983Z,8.30
2023-03-16T09:19:50.543Z,8.40
2023-03-16T09:22:23.133Z,8.40
2023-03-16T09:24:51.458Z,8.50
2023-03-16T09:27:20.501Z,8.50
2023-03-16T09:29:49.458Z,8.40
2023-03-16T09:32:17.649Z,8.40
2023-03-16T09:34:45.840Z,8.40
2023-03-16T09:37:14.526Z,8.30
2023-03-16T09:39:43.932Z,8.40
2023-03-16T09:42:19.188Z,8.30
2023-03-16T09:45:00.432Z,8.30
2023-03-16T09:47:31.937Z,8.30
2023-03-16T09:50:04.108Z,8.40
2023-03-16T09:52:40.405Z,8.30
2023-03-16T09:55:20.648Z,8.30
2023-03-16T09:57:51.978Z,8.30
2023-03-16T10:00:23.971Z,8.40
2023-03-16T10:03:04.346Z,8.50
2023-03-16T10:05:33.667Z,8.50
2023-03-16T10:08:13.051Z,8.50
2023-03-16T10:10:59.639Z,8.60
2023-03-16T10:13:34.947Z,8.60
2023-03-16T10:16:09.542Z,8.60
2023-03-16T10:18:44.854Z,8.50
2023-03-16T10:21:15.120Z,8.50
2023-03-16T10:23:44.225Z,8.40
2023-03-16T10:26:18.685Z,8.40
2023-03-16T10:28:46.745Z,8.60
2023-03-16T10:31:17.517Z,8.70
2023-03-16T10:33:46.120Z,8.70
2023-03-16T10:36:17.038Z,8.60
2023-03-16T10:38:48.341Z,8.50
2023-03-16T10:41:25.499Z,8.50
2023-03-16T10:43:55.872Z,8.60
2023-03-16T10:46:25.816Z,8.60
2023-03-16T10:48:59.645Z,8.60
2023-03-16T10:51:30.970Z,8.70
2023-03-16T10:54:10.218Z,8.70
2023-03-16T10:56:40.285Z,8.70
2023-03-16T10:59:17.111Z,8.80
2023-03-16T11:01:50.899Z,8.80
2023-03-16T11:04:20.432Z,8.90
2023-03-16T11:06:52.668Z,9.00
2023-03-16T11:09:24.822Z,9.00
2023-03-16T11:11:54.694Z,9.00
2023-03-16T11:14:26.550Z,9.10
2023-03-16T11:17:02.206Z,9.10
2023-03-16T11:19:33.045Z,9.10
2023-03-16T11:22:04.937Z,9.20
2023-03-16T11:24:45.509Z,9.30
2023-03-16T11:27:21.844Z,9.30
2023-03-16T11:30:02.770Z,9.40
2023-03-16T11:32:34.418Z,9.40
2023-03-16T11:35:04.586Z,9.40
2023-03-16T11:37:48.393Z,9.50
2023-03-16T11:40:30.193Z,9.40
2023-03-16T11:43:06.957Z,9.50
2023-03-16T11:45:43.317Z,9.50
2023-03-16T11:48:29.215Z,9.50
2023-03-16T11:51:06.476Z,9.60
2023-03-16T11:53:59.458Z,9.60
2023-03-16T11:56:34.001Z,9.60
2023-03-16T11:59:22.532Z,9.60
2023-03-16T12:02:05.022Z,9.60
2023-03-16T12:04:55.154Z,9.60
2023-03-16T12:07:39.532Z,9.50
2023-03-16T12:10:20.120Z,9.50
2023-03-16T12:12:58.298Z,9.50
2023-03-16T12:15:36.981Z,9.50
2023-03-16T12:18:13.341Z,9.50
2023-03-16T12:20:51.055Z,9.40
2023-03-16T12:23:23.379Z,9.40
2023-03-16T12:25:53.370Z,9.40
2023-03-16T12:28:26.342Z,9.40
2023-03-16T12:31:09.254Z,9.40
2023-03-16T12:33:53.379Z,9.40
2023-03-16T12:36:52.972Z,9.40
2023-03-16T12:39:33.159Z,9.50
2023-03-16T12:42:14.984Z,9.50
2023-03-16T12:44:48.979Z,9.50
2023-03-16T12:47:27.137Z,9.60
2023-03-16T12:49:56.766Z,9.60
2023-03-16T12:52:24.811Z,9.60
2023-03-16T12:54:54.708Z,9.60
2023-03-16T12:57:27.023Z,9.60
2023-03-16T12:59:59.837Z,9.60
2023-03-16T13:02:32.340Z,9.70
2023-03-16T13:05:02.939Z,9.70
2023-03-16T13:07:33.360Z,9.60
2023-03-16T13:10:08.638Z,9.60
2023-03-16T13:12:38.851Z,9.60
2023-03-16T13:15:26.556Z,9.70
2023-03-16T13:18:21.036Z,9.60
2023-03-16T13:20:56.414Z,9.60
2023-03-16T13:23:27.493Z,9.60
2023-03-16T13:26:16.357Z,9.70
2023-03-16T13:28:51.271Z,9.70
2023-03-16T13:31:26.998Z,9.70
2023-03-16T13:34:00.083Z,9.70
2023-03-16T13:36:29.842Z,9.70
2023-03-16T13:39:04.409Z,9.60
2023-03-16T13:41:32.738Z,9.70
2023-03-16T13:44:00.758Z,9.70
2023-03-16T13:46:31.066Z,9.70
2023-03-16T13:49:01.233Z,9.70
2023-03-16T13:51:32.147Z,9.70
2023-03-16T13:54:05.052Z,9.70
2023-03-16T13:56:34.005Z,9.60
2023-03-16T13:59:02.642Z,9.70
2023-03-16T14:01:32.714Z,9.70
2023-03-16T14:04:08.866Z,9.70
2023-03-16T14:06:37.780Z,9.80
2023-03-16T14:09:09.262Z,9.70
2023-03-16T14:11:37.354Z,9.70
2023-03-16T14:14:15.850Z,9.70
2023-03-16T14:16:44.608Z,9.60
2023-03-16T14:19:20.175Z,9.70
2023-03-16T14:21:48.255Z,9.70
2023-03-16T14:24:26.833Z,9.70
2023-03-16T14:26:54.934Z,9.70
2023-03-16T14:29:28.234Z,9.70
2023-03-16T14:31:56.269Z,9.60
2023-03-16T14:34:31.453Z,9.70
2023-03-16T14:37:10.953Z,9.70
2023-03-16T14:39:40.394Z,9.70
2023-03-16T14:42:16.007Z,9.60
2023-03-16T14:44:45.450Z,9.70
2023-03-16T14:47:22.629Z,9.70
2023-03-16T14:49:52.259Z,9.70
2023-03-16T14:52:27.088Z,9.70
2023-03-16T14:54:55.456Z,9.70
2023-03-16T14:57:24.420Z,9.70
2023-03-16T14:59:52.464Z,9.80
2023-03-16T15:02:24.904Z,9.80
2023-03-16T15:04:54.684Z,9.80
2023-03-16T15:07:26.014Z,9.80
2023-03-16T15:09:55.747Z,9.80
2023-03-16T15:12:26.016Z,9.80
2023-03-16T15:15:11.684Z,9.80
2023-03-16T15:17:39.632Z,9.80
2023-03-16T15:20:11.801Z,9.80
2023-03-16T15:22:40.503Z,9.80
2023-03-16T15:25:36.391Z,9.90
2023-03-16T15:28:11.382Z,9.90
2023-03-16T15:30:40.456Z,9.90
2023-03-16T15:33:10.093Z,9.90
2023-03-16T15:35:41.035Z,9.80
2023-03-16T15:38:14.557Z,9.90
2023-03-16T15:40:44.080Z,9.90
2023-03-16T15:43:13.783Z,9.90
2023-03-16T15:45:41.993Z,9.80
2023-03-16T15:48:11.075Z,9.90
2023-03-16T15:50:43.100Z,9.90
2023-03-16T15:53:29.462Z,9.80
2023-03-16T15:56:02.878Z,9.90
2023-03-16T15:58:33.388Z,9.90
2023-03-16T16:01:02.723Z,9.90
2023-03-16T16:03:31.524Z,9.90
2023-03-16T16:06:01.424Z,9.90
2023-03-16T16:08:29.698Z,9.90
2023-03-16T16:10:58.093Z,9.90
2023-03-16T16:13:43.188Z,9.80
2023-03-16T16:16:14.369Z,9.90
2023-03-16T16:18:42.913Z,9.90
2023-03-16T16:21:17.968Z,9.80
2023-03-16T16:23:46.521Z,9.90
2023-03-16T16:26:26.290Z,9.90
2023-03-16T16:28:58.431Z,9.80
2023-03-16T16:31:29.073Z,9.90
2023-03-16T16:33:58.886Z,9.80
2023-03-16T16:36:32.186Z,9.90
2023-03-16T16:39:00.437Z,9.90
2023-03-16T16:41:30.941Z,9.80
2023-03-16T16:43:59.975Z,9.80
2023-03-16T16:46:29.602Z,9.80
2023-03-16T16:49:01.628Z,9.80
2023-03-16T16:51:31.550Z,9.80
2023-03-16T16:54:01.004Z,9.80
2023-03-16T16:56:31.218Z,9.80
2023-03-16T16:59:01.167Z,9.70
2023-03-16T17:01:32.880Z,9.80
2023-03-16T17:04:01.766Z,9.70
2023-03-16T17:06:31.453Z,9.70
2023-03-16T17:08:59.517Z,9.70
2023-03-16T17:11:29.721Z,9.70
2023-03-16T17:13:59.978Z,9.60
2023-03-16T17:16:31.431Z,9.60
2023-03-16T17:18:59.994Z,9.60
2023-03-16T17:21:31.938Z,9.60
2023-03-16T17:24:00.362Z,9.50
2023-03-16T17:26:31.289Z,9.50
2023-03-16T17:29:02.326Z,9.50
2023-03-16T17:31:36.374Z,9.50
2023-03-16T17:34:16.560Z,9.50
2023-03-16T17:36:46.206Z,9.50
2023-03-16T17:39:18.425Z,9.40
2023-03-16T17:41:47.519Z,9.40
2023-03-16T17:44:16.184Z,9.30
2023-03-16T17:46:44.283Z,9.30
2023-03-16T17:49:14.381Z,9.30
2023-03-16T17:51:43.968Z,9.30
2023-03-16T17:54:13.660Z,9.20
2023-03-16T17:56:42.356Z,9.20
2023-03-16T17:59:18.023Z,9.10
2023-03-16T18:01:47.033Z,9.10
2023-03-16T18:04:18.290Z,9.10
2023-03-16T18:06:48.092Z,9.00
2023-03-16T18:09:18.781Z,9.00
2023-03-16T18:11:49.101Z,9.00
2023-03-16T18:14:25.423Z,8.90
2023-03-16T18:16:54.480Z,8.90
2023-03-16T18:19:25.616Z,8.80
2023-03-16T18:21:54.512Z,8.80
2023-03-16T18:24:26.690Z,8.80
2023-03-16T18:26:55.209Z,8.80
2023-03-16T18:29:24.023Z,8.70
2023-03-16T18:31:56.019Z,8.80
2023-03-16T18:34:27.143Z,8.70
2023-03-16T18:36:59.578Z,8.70
2023-03-16T18:39:28.941Z,8.70
2023-03-16T18:41:56.987Z,8.70
2023-03-16T18:44:26.698Z,8.60
2023-03-16T18:46:59.380Z,8.50
2023-03-16T18:49:31.921Z,8.60
2023-03-16T18:52:00.029Z,8.60
2023-03-16T18:54:32.167Z,8.60
2023-03-16T18:57:01.020Z,8.70
2023-03-16T18:59:29.203Z,8.70
2023-03-16T19:01:57.994Z,8.60
2023-03-16T19:04:29.196Z,8.60
2023-03-16T19:06:58.221Z,8.50
2023-03-16T19:09:30.053Z,8.50
2023-03-16T19:11:59.410Z,8.50
2023-03-16T19:14:29.400Z,8.40
2023-03-16T19:16:57.554Z,8.50
2023-03-16T19:19:28.351Z,8.40
2023-03-16T19:22:01.590Z,8.40
2023-03-16T19:24:35.103Z,8.40
2023-03-16T19:27:03.393Z,8.40
2023-03-16T19:29:34.176Z,8.40
2023-03-16T19:32:03.109Z,8.40
2023-03-16T19:34:31.390Z,8.40
2023-03-16T19:36:59.429Z,8.50
2023-03-16T19:39:28.059Z,8.40
2023-03-16T19:41:59.858Z,8.30
2023-03-16T19:44:29.226Z,8.30
2023-03-16T19:46:59.078Z,8.30
2023-03-16T19:49:29.229Z,8.30
2023-03-16T19:51:57.934Z,8.20
2023-03-16T19:54:27.941Z,8.20
2023-03-16T19:57:00.472Z,8.20
2023-03-16T19:59:33.455Z,8.20
2023-03-16T20:02:02.291Z,8.20
2023-03-16T20:04:31.315Z,8.20
2023-03-16T20:06:59.418Z,8.20
2023-03-16T20:09:27.486Z,8.20
2023-03-16T20:11:56.926Z,8.10
2023-03-16T20:14:30.223Z,8.10
2023-03-16T20:16:58.419Z,8.20
2023-03-16T20:19:26.451Z,8.10
2023-03-16T20:21:54.477Z,8.10
2023-03-16T20:24:22.678Z,8.10
2023-03-16T20:26:52.367Z,8.10
2023-03-16T20:29:28.340Z,8.10
2023-03-16T20:31:56.856Z,8.00
2023-03-16T20:34:26.998Z,8.00
2023-03-16T20:36:55.799Z,8.00
2023-03-16T20:39:23.830Z,8.00
2023-03-16T20:41:52.697Z,8.00
2023-03-16T20:44:23.581Z,8.00
2023-03-16T20:46:52.197Z,7.90
2023-03-16T20:49:38.198Z,8.00
2023-03-16T20:52:16.258Z,8.00
2023-03-16T20:54:44.452Z,7.90
2023-03-16T20:57:19.722Z,7.90
2023-03-16T20:59:51.441Z,7.90
2023-03-16T21:02:28.426Z,7.90
2023-03-16T21:04:57.214Z,7.80
2023-03-16T21:07:25.462Z,7.80
2023-03-16T21:09:53.676Z,7.80
2023-03-16T21:12:24.841Z,7.80
2023-03-16T21:14:54.328Z,7.80
2023-03-16T21:17:26.602Z,7.70
2023-03-16T21:19:55.149Z,7.60
2023-03-16T21:22:26.920Z,7.50
2023-03-16T21:24:55.017Z,7.60
2023-03-16T21:27:27.677Z,7.50
2023-03-16T21:30:00.401Z,7.70
2023-03-16T21:32:30.871Z,7.70
2023-03-16T21:34:59.009Z,7.60
2023-03-16T21:37:27.932Z,7.60
2023-03-16T21:39:56.078Z,7.50
2023-03-16T21:42:24.087Z,7.50
2023-03-16T21:44:52.342Z,7.40
2023-03-16T21:47:26.428Z,7.50
2023-03-16T21:49:54.751Z,7.50
2023-03-16T21:52:24.543Z,7.50
2023-03-16T21:54:53.382Z,7.50
2023-03-16T21:57:21.811Z,7.50
2023-03-16T21:59:50.377Z,7.40
2023-03-16T22:02:21.945Z,7.50
2023-03-16T22:04:52.010Z,7.50
2023-03-16T22:07:23.007Z,7.50
2023-03-16T22:09:51.208Z,7.40
2023-03-16T22:12:19.303Z,7.40
2023-03-16T22:14:47.514Z,7.40
2023-03-16T22:17:21.903Z,7.40
2023-03-16T22:19:51.864Z,7.40
2023-03-16T22:22:19.930Z,7.40
2023-03-16T22:24:48.010Z,7.40
2023-03-16T22:27:19.427Z,7.40
2023-03-16T22:29:49.855Z,7.40
2023-03-16T22:32:20.456Z,7.40
2023-03-16T22:34:52.261Z,7.40
2023-03-16T22:37:23.052Z,7.40
2023-03-16T22:39:51.682Z,7.40
2023-03-16T22:42:28.714Z,7.40
2023-03-16T22:44:57.185Z,7.30
2023-03-16T22:47:27.472Z,7.30
2023-03-16T22:49:56.849Z,7.40
2023-03-16T22:52:29.479Z,7.30
2023-03-16T22:54:58.081Z,7.40
2023-03-16T22:57:26.254Z,7.30
2023-03-16T22:59:54.401Z,7.20
2023-03-16T23:02:26.483Z,7.30
2023-03-16T23:04:56.105Z,7.40
2023-03-16T23:07:24.273Z,7.40
2023-03-16T23:09:52.382Z,7.40
2023-03-16T23:12:22.886Z,7.30
2023-03-16T23:14:51.096Z,7.30
2023-03-16T23:17:22.073Z,7.30
2023-03-16T23:19:50.262Z,7.30
2023-03-16T23:22:19.717Z,7.30
2023-03-16T23:24:47.760Z,7.30
2023-03-16T23:27:19.083Z,7.30
2023-03-16T23:29:47.183Z,7.30
2023-03-16T23:32:16.793Z,7.20
2023-03-16T23:34:44.846Z,7.20
2023-03-16T23:37:12.897Z,7.20
2023-03-16T23:39:42.352Z,7.20
2023-03-16T23:42:10.868Z,7.20
2023-03-16T23:44:39.148Z,7.30
2023-03-16T23:47:08.591Z,7.20
2023-03-16T23:49:43.508Z,7.30
2023-03-16T23:52:13.408Z,7.40
2023-03-16T23:54:43.258Z,7.40
2023-03-16T23:57:11.471Z,7.30
2023-03-16T23:59:39.530Z,7.30
